sensor_id;sensor_type;location;lat;lon;timestamp;pressure;altitude;pressure_sealevel;temperature;humidity
33153;BME280;19509;43.862;26.176;2023-08-12T00:01:18;101176.41;;;17.95;73.40
33153;BME280;19509;43.862;26.176;2023-08-12T00:03:46;101174.50;;;17.67;74.65
33153;BME280;19509;43.862;26.176;2023-08-12T00:06:12;101172.84;;;17.66;74.90
33153;BME280;19509;43.862;26.176;2023-08-12T00:08:37;101176.22;;;17.85;74.19
33153;BME280;19509;43.862;26.176;2023-08-12T00:11:03;101168.03;;;17.85;74.43
33153;BME280;19509;43.862;26.176;2023-08-12T00:13:28;101175.97;;;17.87;74.18
33153;BME280;19509;43.862;26.176;2023-08-12T00:15:54;101176.63;;;17.77;74.60
33153;BME280;19509;43.862;26.176;2023-08-12T00:18:19;101172.44;;;17.74;74.75
33153;BME280;19509;43.862;26.176;2023-08-12T00:20:45;101174.72;;;17.78;74.37
33153;BME280;19509;43.862;26.176;2023-08-12T00:23:11;101180.88;;;17.73;74.71
33153;BME280;19509;43.862;26.176;2023-08-12T00:25:36;101178.97;;;17.73;74.78
33153;BME280;19509;43.862;26.176;2023-08-12T00:28:02;101172.00;;;17.78;74.80
33153;BME280;19509;43.862;26.176;2023-08-12T00:30:28;101183.47;;;17.68;75.34
33153;BME280;19509;43.862;26.176;2023-08-12T00:32:53;101180.06;;;17.61;75.40
33153;BME280;19509;43.862;26.176;2023-08-12T00:35:19;101181.28;;;17.53;75.59
33153;BME280;19509;43.862;26.176;2023-08-12T00:37:45;101184.84;;;17.54;75.38
33153;BME280;19509;43.862;26.176;2023-08-12T00:40:11;101187.91;;;17.45;75.86
33153;BME280;19509;43.862;26.176;2023-08-12T00:42:36;101180.19;;;17.14;76.86
33153;BME280;19509;43.862;26.176;2023-08-12T00:45:02;101183.78;;;17.02;77.23
33153;BME280;19509;43.862;26.176;2023-08-12T00:47:30;101182.59;;;16.98;77.38
33153;BME280;19509;43.862;26.176;2023-08-12T00:49:56;101178.00;;;16.99;77.62
33153;BME280;19509;43.862;26.176;2023-08-12T00:52:24;101182.81;;;16.97;77.38
33153;BME280;19509;43.862;26.176;2023-08-12T00:54:49;101180.22;;;16.90;77.47
33153;BME280;19509;43.862;26.176;2023-08-12T00:57:15;101179.88;;;16.87;77.84
33153;BME280;19509;43.862;26.176;2023-08-12T00:59:41;101181.06;;;16.91;77.54
33153;BME280;19509;43.862;26.176;2023-08-12T01:02:07;101182.22;;;16.95;77.50
33153;BME280;19509;43.862;26.176;2023-08-12T01:04:34;101182.09;;;17.01;77.41
33153;BME280;19509;43.862;26.176;2023-08-12T01:06:59;101178.47;;;16.96;77.30
33153;BME280;19509;43.862;26.176;2023-08-12T01:09:25;101181.19;;;16.96;77.50
33153;BME280;19509;43.862;26.176;2023-08-12T01:11:59;101187.31;;;16.91;77.69
33153;BME280;19509;43.862;26.176;2023-08-12T01:17:11;101184.59;;;16.91;77.46
33153;BME280;19509;43.862;26.176;2023-08-12T01:19:39;101180.47;;;16.89;77.49
33153;BME280;19509;43.862;26.176;2023-08-12T01:22:08;101182.13;;;16.90;77.56
33153;BME280;19509;43.862;26.176;2023-08-12T01:24:42;101181.53;;;16.88;77.53
33153;BME280;19509;43.862;26.176;2023-08-12T01:27:11;101179.28;;;16.85;78.05
33153;BME280;19509;43.862;26.176;2023-08-12T01:29:39;101182.97;;;16.78;78.13
33153;BME280;19509;43.862;26.176;2023-08-12T01:36:00;101188.41;;;16.78;78.30
33153;BME280;19509;43.862;26.176;2023-08-12T01:37:54;101189.09;;;16.62;78.27
33153;BME280;19509;43.862;26.176;2023-08-12T01:40:21;101193.09;;;16.60;78.61
33153;BME280;19509;43.862;26.176;2023-08-12T01:42:47;101195.00;;;16.47;78.27
33153;BME280;19509;43.862;26.176;2023-08-12T01:45:13;101193.41;;;16.40;79.04
33153;BME280;19509;43.862;26.176;2023-08-12T01:47:43;101203.09;;;16.36;79.45
33153;BME280;19509;43.862;26.176;2023-08-12T01:50:08;101201.09;;;16.31;79.57
33153;BME280;19509;43.862;26.176;2023-08-12T01:52:35;101205.22;;;16.33;79.46
33153;BME280;19509;43.862;26.176;2023-08-12T01:55:00;101212.06;;;16.24;79.54
33153;BME280;19509;43.862;26.176;2023-08-12T01:57:26;101216.31;;;16.20;79.54
33153;BME280;19509;43.862;26.176;2023-08-12T01:59:54;101218.28;;;16.13;79.64
33153;BME280;19509;43.862;26.176;2023-08-12T02:02:19;101226.31;;;16.08;80.47
33153;BME280;19509;43.862;26.176;2023-08-12T02:04:45;101214.97;;;16.11;80.63
33153;BME280;19509;43.862;26.176;2023-08-12T02:07:11;101219.34;;;16.12;80.79
33153;BME280;19509;43.862;26.176;2023-08-12T02:09:36;101225.63;;;16.24;80.51
33153;BME280;19509;43.862;26.176;2023-08-12T02:12:02;101232.19;;;16.05;80.36
33153;BME280;19509;43.862;26.176;2023-08-12T02:14:27;101227.19;;;15.90;81.19
33153;BME280;19509;43.862;26.176;2023-08-12T02:16:53;101227.41;;;15.89;81.38
33153;BME280;19509;43.862;26.176;2023-08-12T02:19:18;101230.03;;;15.95;80.30
33153;BME280;19509;43.862;26.176;2023-08-12T02:21:44;101219.06;;;15.72;81.55
33153;BME280;19509;43.862;26.176;2023-08-12T02:24:10;101225.47;;;15.77;81.78
33153;BME280;19509;43.862;26.176;2023-08-12T02:26:36;101225.06;;;15.92;81.41
33153;BME280;19509;43.862;26.176;2023-08-12T02:29:02;101225.84;;;15.81;81.10
33153;BME280;19509;43.862;26.176;2023-08-12T02:31:28;155628.09;;;15.71;81.47
33153;BME280;19509;43.862;26.176;2023-08-12T02:33:53;101233.69;;;15.71;81.47
33153;BME280;19509;43.862;26.176;2023-08-12T02:36:18;101229.25;;;15.40;82.65
33153;BME280;19509;43.862;26.176;2023-08-12T02:38:44;101234.53;;;15.53;82.78
33153;BME280;19509;43.862;26.176;2023-08-12T02:41:09;101241.69;;;15.47;82.94
33153;BME280;19509;43.862;26.176;2023-08-12T02:43:35;101243.63;;;15.58;82.85
33153;BME280;19509;43.862;26.176;2023-08-12T02:46:00;101246.69;;;15.62;82.66
33153;BME280;19509;43.862;26.176;2023-08-12T02:48:26;101245.88;;;15.61;82.66
33153;BME280;19509;43.862;26.176;2023-08-12T02:50:52;101239.63;;;15.61;82.69
33153;BME280;19509;43.862;26.176;2023-08-12T02:53:17;101248.97;;;15.65;82.73
33153;BME280;19509;43.862;26.176;2023-08-12T02:55:44;101247.38;;;15.76;82.18
33153;BME280;19509;43.862;26.176;2023-08-12T02:58:10;101249.78;;;15.66;82.23
33153;BME280;19509;43.862;26.176;2023-08-12T03:00:36;101245.97;;;15.55;81.54
33153;BME280;19509;43.862;26.176;2023-08-12T03:03:02;101249.06;;;15.40;81.92
33153;BME280;19509;43.862;26.176;2023-08-12T03:05:27;101252.28;;;15.30;82.36
33153;BME280;19509;43.862;26.176;2023-08-12T03:07:53;101256.44;;;15.33;82.69
33153;BME280;19509;43.862;26.176;2023-08-12T03:10:18;101254.31;;;15.35;82.91
33153;BME280;19509;43.862;26.176;2023-08-12T03:12:44;101249.28;;;15.38;83.30
33153;BME280;19509;43.862;26.176;2023-08-12T03:15:10;101241.22;;;15.50;82.84
33153;BME280;19509;43.862;26.176;2023-08-12T03:17:36;101243.94;;;15.50;81.96
33153;BME280;19509;43.862;26.176;2023-08-12T03:20:05;101248.47;;;15.56;81.71
33153;BME280;19509;43.862;26.176;2023-08-12T03:22:30;101256.38;;;15.40;82.37
33153;BME280;19509;43.862;26.176;2023-08-12T03:24:56;101256.44;;;15.33;82.65
33153;BME280;19509;43.862;26.176;2023-08-12T03:27:22;101256.72;;;15.25;82.24
33153;BME280;19509;43.862;26.176;2023-08-12T03:29:47;101259.91;;;15.22;82.94
33153;BME280;19509;43.862;26.176;2023-08-12T03:32:13;101257.34;;;15.27;83.19
33153;BME280;19509;43.862;26.176;2023-08-12T03:34:38;101258.53;;;15.31;83.00
33153;BME280;19509;43.862;26.176;2023-08-12T03:37:04;101254.56;;;15.33;82.88
33153;BME280;19509;43.862;26.176;2023-08-12T03:39:29;101255.38;;;15.34;82.94
33153;BME280;19509;43.862;26.176;2023-08-12T03:41:55;101253.78;;;15.45;82.07
33153;BME280;19509;43.862;26.176;2023-08-12T03:44:20;101256.13;;;15.41;82.54
33153;BME280;19509;43.862;26.176;2023-08-12T03:46:46;101268.09;;;15.52;82.35
33153;BME280;19509;43.862;26.176;2023-08-12T03:49:11;101266.50;;;15.69;82.59
33153;BME280;19509;43.862;26.176;2023-08-12T03:51:37;101270.25;;;15.87;81.76
33153;BME280;19509;43.862;26.176;2023-08-12T03:54:02;101269.94;;;16.06;80.93
33153;BME280;19509;43.862;26.176;2023-08-12T03:56:29;101274.63;;;16.18;80.71
33153;BME280;19509;43.862;26.176;2023-08-12T03:58:54;101270.38;;;16.22;80.60
33153;BME280;19509;43.862;26.176;2023-08-12T04:01:20;101264.88;;;16.40;79.46
33153;BME280;19509;43.862;26.176;2023-08-12T04:03:46;101267.03;;;16.50;78.87
33153;BME280;19509;43.862;26.176;2023-08-12T04:06:11;101277.88;;;16.92;77.87
33153;BME280;19509;43.862;26.176;2023-08-12T04:08:36;101279.41;;;17.23;75.97
33153;BME280;19509;43.862;26.176;2023-08-12T04:11:02;101288.88;;;17.09;76.61
33153;BME280;19509;43.862;26.176;2023-08-12T04:13:28;101289.81;;;17.02;76.78
33153;BME280;19509;43.862;26.176;2023-08-12T04:15:53;101284.25;;;16.97;76.85
33153;BME280;19509;43.862;26.176;2023-08-12T04:18:19;101291.84;;;16.95;77.08
33153;BME280;19509;43.862;26.176;2023-08-12T04:20:49;101290.75;;;16.96;77.28
33153;BME280;19509;43.862;26.176;2023-08-12T04:23:15;101294.09;;;16.98;77.46
33153;BME280;19509;43.862;26.176;2023-08-12T04:25:43;101294.44;;;17.14;77.24
33153;BME280;19509;43.862;26.176;2023-08-12T04:28:10;101300.09;;;17.24;76.85
33153;BME280;19509;43.862;26.176;2023-08-12T04:30:35;101292.53;;;17.49;76.24
33153;BME280;19509;43.862;26.176;2023-08-12T04:33:01;101292.13;;;17.58;75.72
33153;BME280;19509;43.862;26.176;2023-08-12T04:35:26;101287.16;;;17.78;75.22
33153;BME280;19509;43.862;26.176;2023-08-12T04:37:52;101294.09;;;17.98;74.61
33153;BME280;19509;43.862;26.176;2023-08-12T04:40:17;101296.88;;;18.03;74.47
33153;BME280;19509;43.862;26.176;2023-08-12T04:42:43;101298.03;;;18.18;73.76
33153;BME280;19509;43.862;26.176;2023-08-12T04:45:09;101297.25;;;18.35;73.14
33153;BME280;19509;43.862;26.176;2023-08-12T04:47:34;101288.50;;;18.50;73.17
33153;BME280;19509;43.862;26.176;2023-08-12T04:50:00;101287.84;;;18.59;73.00
33153;BME280;19509;43.862;26.176;2023-08-12T04:52:25;101290.75;;;18.70;72.62
33153;BME280;19509;43.862;26.176;2023-08-12T04:54:54;101298.97;;;18.86;72.01
33153;BME280;19509;43.862;26.176;2023-08-12T04:57:19;101300.28;;;19.01;71.86
33153;BME280;19509;43.862;26.176;2023-08-12T04:59:45;101300.25;;;19.18;71.39
33153;BME280;19509;43.862;26.176;2023-08-12T05:02:10;101301.31;;;19.33;71.12
33153;BME280;19509;43.862;26.176;2023-08-12T05:04:36;101305.00;;;19.44;70.43
33153;BME280;19509;43.862;26.176;2023-08-12T05:07:02;101299.59;;;19.49;70.29
33153;BME280;19509;43.862;26.176;2023-08-12T05:09:27;101302.91;;;19.68;69.52
33153;BME280;19509;43.862;26.176;2023-08-12T05:11:53;101305.50;;;19.80;69.36
33153;BME280;19509;43.862;26.176;2023-08-12T05:14:18;101298.47;;;19.84;69.31
33153;BME280;19509;43.862;26.176;2023-08-12T05:16:44;101300.06;;;20.07;68.78
33153;BME280;19509;43.862;26.176;2023-08-12T05:19:09;101304.28;;;20.69;66.47
33153;BME280;19509;43.862;26.176;2023-08-12T05:21:34;101296.94;;;21.07;65.50
33153;BME280;19509;43.862;26.176;2023-08-12T05:24:00;101308.69;;;21.44;64.13
33153;BME280;19509;43.862;26.176;2023-08-12T05:26:25;101305.66;;;21.46;64.78
33153;BME280;19509;43.862;26.176;2023-08-12T05:28:51;101310.41;;;21.61;63.87
33153;BME280;19509;43.862;26.176;2023-08-12T05:31:17;101311.56;;;21.75;63.24
33153;BME280;19509;43.862;26.176;2023-08-12T05:33:42;101305.53;;;21.68;61.91
33153;BME280;19509;43.862;26.176;2023-08-12T05:36:08;101310.13;;;21.62;62.03
33153;BME280;19509;43.862;26.176;2023-08-12T05:38:34;101305.22;;;21.69;61.49
33153;BME280;19509;43.862;26.176;2023-08-12T05:40:59;101303.09;;;21.82;60.47
33153;BME280;19509;43.862;26.176;2023-08-12T05:43:25;101309.72;;;21.91;60.39
33153;BME280;19509;43.862;26.176;2023-08-12T05:45:50;101312.03;;;22.25;60.14
33153;BME280;19509;43.862;26.176;2023-08-12T05:48:16;101308.19;;;22.31;60.81
33153;BME280;19509;43.862;26.176;2023-08-12T05:50:41;101309.81;;;22.16;58.69
33153;BME280;19509;43.862;26.176;2023-08-12T05:53:07;101308.75;;;22.28;60.03
33153;BME280;19509;43.862;26.176;2023-08-12T05:55:33;101298.34;;;22.45;59.91
33153;BME280;19509;43.862;26.176;2023-08-12T05:58:00;101303.84;;;22.50;58.11
33153;BME280;19509;43.862;26.176;2023-08-12T06:00:25;101309.31;;;22.45;57.03
33153;BME280;19509;43.862;26.176;2023-08-12T06:02:51;101313.41;;;22.22;58.15
33153;BME280;19509;43.862;26.176;2023-08-12T06:05:16;101303.31;;;22.43;58.36
33153;BME280;19509;43.862;26.176;2023-08-12T06:07:42;101310.97;;;22.61;57.63
33153;BME280;19509;43.862;26.176;2023-08-12T06:10:07;101309.63;;;22.89;57.39
33153;BME280;19509;43.862;26.176;2023-08-12T06:12:33;101303.03;;;22.80;56.77
33153;BME280;19509;43.862;26.176;2023-08-12T06:14:59;101299.75;;;22.83;55.64
33153;BME280;19509;43.862;26.176;2023-08-12T06:17:26;101297.28;;;22.82;56.53
33153;BME280;19509;43.862;26.176;2023-08-12T06:19:51;101297.81;;;23.09;55.60
33153;BME280;19509;43.862;26.176;2023-08-12T06:22:17;101303.88;;;23.11;55.44
33153;BME280;19509;43.862;26.176;2023-08-12T06:24:42;101306.06;;;23.09;55.04
33153;BME280;19509;43.862;26.176;2023-08-12T06:27:08;101299.22;;;23.07;55.05
33153;BME280;19509;43.862;26.176;2023-08-12T06:29:33;101309.06;;;23.13;54.77
33153;BME280;19509;43.862;26.176;2023-08-12T06:31:59;101303.28;;;23.20;54.44
33153;BME280;19509;43.862;26.176;2023-08-12T06:34:24;101296.13;;;23.39;54.32
33153;BME280;19509;43.862;26.176;2023-08-12T06:36:50;101297.69;;;23.60;53.79
33153;BME280;19509;43.862;26.176;2023-08-12T06:39:15;101295.69;;;23.92;52.84
33153;BME280;19509;43.862;26.176;2023-08-12T06:41:41;101297.94;;;23.79;52.56
33153;BME280;19509;43.862;26.176;2023-08-12T06:44:06;101296.94;;;23.45;52.76
33153;BME280;19509;43.862;26.176;2023-08-12T06:46:32;101301.06;;;23.47;53.41
33153;BME280;19509;43.862;26.176;2023-08-12T06:48:58;101294.72;;;23.47;54.08
33153;BME280;19509;43.862;26.176;2023-08-12T06:51:24;101292.94;;;23.87;53.93
33153;BME280;19509;43.862;26.176;2023-08-12T06:53:50;101307.94;;;24.10;52.57
33153;BME280;19509;43.862;26.176;2023-08-12T06:56:15;101298.81;;;24.19;51.25
33153;BME280;19509;43.862;26.176;2023-08-12T06:58:41;101298.47;;;24.31;51.43
33153;BME280;19509;43.862;26.176;2023-08-12T07:01:06;101298.88;;;24.09;51.62
33153;BME280;19509;43.862;26.176;2023-08-12T07:03:32;101299.59;;;24.25;51.89
33153;BME280;19509;43.862;26.176;2023-08-12T07:05:58;101295.72;;;24.31;51.43
33153;BME280;19509;43.862;26.176;2023-08-12T07:08:23;101296.16;;;24.53;51.29
33153;BME280;19509;43.862;26.176;2023-08-12T07:10:49;101287.81;;;24.64;50.27
33153;BME280;19509;43.862;26.176;2023-08-12T07:13:14;101285.91;;;24.59;49.57
33153;BME280;19509;43.862;26.176;2023-08-12T07:15:40;101292.94;;;24.41;50.52
33153;BME280;19509;43.862;26.176;2023-08-12T07:18:05;101292.97;;;24.70;49.88
33153;BME280;19509;43.862;26.176;2023-08-12T07:20:31;101289.03;;;24.82;50.02
33153;BME280;19509;43.862;26.176;2023-08-12T07:22:56;101284.91;;;24.79;49.68
33153;BME280;19509;43.862;26.176;2023-08-12T07:25:22;101285.06;;;24.93;49.44
33153;BME280;19509;43.862;26.176;2023-08-12T07:27:48;101289.88;;;25.06;48.71
33153;BME280;19509;43.862;26.176;2023-08-12T07:30:13;101281.56;;;25.16;49.90
33153;BME280;19509;43.862;26.176;2023-08-12T07:32:39;101295.06;;;25.42;48.00
33153;BME280;19509;43.862;26.176;2023-08-12T07:35:05;101283.91;;;24.99;48.28
33153;BME280;19509;43.862;26.176;2023-08-12T07:37:31;101294.88;;;25.33;48.30
33153;BME280;19509;43.862;26.176;2023-08-12T07:39:57;101288.78;;;25.36;48.15
33153;BME280;19509;43.862;26.176;2023-08-12T07:42:22;101283.03;;;25.57;48.21
33153;BME280;19509;43.862;26.176;2023-08-12T07:44:48;101294.50;;;25.64;47.15
33153;BME280;19509;43.862;26.176;2023-08-12T07:47:13;101290.41;;;25.37;47.14
33153;BME280;19509;43.862;26.176;2023-08-12T07:49:40;101282.34;;;25.46;46.99
33153;BME280;19509;43.862;26.176;2023-08-12T07:52:06;101283.50;;;25.40;48.99
33153;BME280;19509;43.862;26.176;2023-08-12T07:54:32;101274.63;;;25.67;47.51
33153;BME280;19509;43.862;26.176;2023-08-12T07:56:57;101284.91;;;25.85;45.99
33153;BME280;19509;43.862;26.176;2023-08-12T07:59:23;101282.03;;;25.71;47.11
33153;BME280;19509;43.862;26.176;2023-08-12T08:01:48;101276.97;;;26.03;45.73
33153;BME280;19509;43.862;26.176;2023-08-12T08:04:14;101269.72;;;26.07;45.18
33153;BME280;19509;43.862;26.176;2023-08-12T08:06:39;101272.69;;;25.91;45.76
33153;BME280;19509;43.862;26.176;2023-08-12T08:09:05;101274.72;;;26.05;45.65
33153;BME280;19509;43.862;26.176;2023-08-12T08:11:31;101279.16;;;26.38;44.98
33153;BME280;19509;43.862;26.176;2023-08-12T08:13:58;101266.19;;;26.39;44.95
33153;BME280;19509;43.862;26.176;2023-08-12T08:16:24;101269.41;;;26.08;44.46
33153;BME280;19509;43.862;26.176;2023-08-12T08:18:49;101264.94;;;25.93;45.19
33153;BME280;19509;43.862;26.176;2023-08-12T08:21:15;101261.22;;;26.03;43.65
33153;BME280;19509;43.862;26.176;2023-08-12T08:23:41;101264.25;;;26.02;44.34
33153;BME280;19509;43.862;26.176;2023-08-12T08:26:07;101265.63;;;26.23;44.44
33153;BME280;19509;43.862;26.176;2023-08-12T08:28:33;101268.06;;;26.43;44.19
33153;BME280;19509;43.862;26.176;2023-08-12T08:31:00;101259.94;;;26.52;44.51
33153;BME280;19509;43.862;26.176;2023-08-12T08:33:26;101255.84;;;26.50;44.40
33153;BME280;19509;43.862;26.176;2023-08-12T08:35:52;101266.72;;;26.22;45.00
33153;BME280;19509;43.862;26.176;2023-08-12T08:38:17;101260.47;;;26.16;44.28
33153;BME280;19509;43.862;26.176;2023-08-12T08:40:43;101256.38;;;26.14;44.49
33153;BME280;19509;43.862;26.176;2023-08-12T08:43:08;101246.97;;;26.15;44.46
33153;BME280;19509;43.862;26.176;2023-08-12T08:45:34;101255.53;;;26.51;43.65
33153;BME280;19509;43.862;26.176;2023-08-12T08:48:01;101254.00;;;26.78;43.56
33153;BME280;19509;43.862;26.176;2023-08-12T08:50:30;101239.19;;;26.55;43.15
33153;BME280;19509;43.862;26.176;2023-08-12T08:52:57;101241.81;;;26.79;42.74
33153;BME280;19509;43.862;26.176;2023-08-12T08:55:23;101249.53;;;27.09;42.11
33153;BME280;19509;43.862;26.176;2023-08-12T08:57:49;101256.66;;;26.97;41.73
33153;BME280;19509;43.862;26.176;2023-08-12T09:00:16;101238.66;;;26.85;41.68
33153;BME280;19509;43.862;26.176;2023-08-12T09:02:49;101239.06;;;26.93;41.07
33153;BME280;19509;43.862;26.176;2023-08-12T09:05:16;101233.25;;;26.94;40.87
33153;BME280;19509;43.862;26.176;2023-08-12T09:07:43;101226.97;;;27.35;40.29
33153;BME280;19509;43.862;26.176;2023-08-12T09:10:10;101231.16;;;27.46;39.56
33153;BME280;19509;43.862;26.176;2023-08-12T09:12:36;101240.25;;;27.47;40.87
33153;BME280;19509;43.862;26.176;2023-08-12T09:15:03;101237.28;;;27.43;39.10
33153;BME280;19509;43.862;26.176;2023-08-12T09:17:29;101222.63;;;27.56;39.63
33153;BME280;19509;43.862;26.176;2023-08-12T09:19:55;101223.22;;;27.67;38.70
33153;BME280;19509;43.862;26.176;2023-08-12T09:22:24;101221.88;;;27.65;39.66
33153;BME280;19509;43.862;26.176;2023-08-12T09:24:50;101224.47;;;28.11;38.75
33153;BME280;19509;43.862;26.176;2023-08-12T09:27:19;101233.28;;;28.36;37.88
33153;BME280;19509;43.862;26.176;2023-08-12T09:29:45;101218.91;;;27.89;39.04
33153;BME280;19509;43.862;26.176;2023-08-12T09:32:11;101213.78;;;27.68;39.32
33153;BME280;19509;43.862;26.176;2023-08-12T09:34:44;101208.28;;;27.54;40.07
33153;BME280;19509;43.862;26.176;2023-08-12T09:37:12;101211.06;;;27.82;39.77
33153;BME280;19509;43.862;26.176;2023-08-12T09:39:38;101217.28;;;28.33;38.69
33153;BME280;19509;43.862;26.176;2023-08-12T09:42:04;101203.75;;;28.45;37.73
33153;BME280;19509;43.862;26.176;2023-08-12T09:44:29;101208.75;;;28.43;38.45
33153;BME280;19509;43.862;26.176;2023-08-12T09:46:58;101209.97;;;27.92;38.44
33153;BME280;19509;43.862;26.176;2023-08-12T09:49:24;101201.91;;;27.81;39.02
33153;BME280;19509;43.862;26.176;2023-08-12T09:51:50;101203.53;;;27.96;38.50
33153;BME280;19509;43.862;26.176;2023-08-12T09:54:17;101195.72;;;28.21;38.03
33153;BME280;19509;43.862;26.176;2023-08-12T09:56:47;101193.91;;;28.61;36.93
33153;BME280;19509;43.862;26.176;2023-08-12T09:59:17;101178.97;;;28.26;36.91
33153;BME280;19509;43.862;26.176;2023-08-12T10:01:45;101180.59;;;28.41;37.66
33153;BME280;19509;43.862;26.176;2023-08-12T10:04:11;101181.50;;;28.36;37.18
33153;BME280;19509;43.862;26.176;2023-08-12T10:06:40;101177.13;;;28.13;37.93
33153;BME280;19509;43.862;26.176;2023-08-12T10:09:07;101169.44;;;28.10;37.31
33153;BME280;19509;43.862;26.176;2023-08-12T10:11:36;101167.53;;;28.19;37.01
33153;BME280;19509;43.862;26.176;2023-08-12T10:14:04;101172.47;;;28.44;37.15
33153;BME280;19509;43.862;26.176;2023-08-12T10:16:29;101171.66;;;28.75;37.79
33153;BME280;19509;43.862;26.176;2023-08-12T10:18:57;101164.94;;;29.07;36.88
33153;BME280;19509;43.862;26.176;2023-08-12T10:21:23;101162.25;;;28.93;36.09
33153;BME280;19509;43.862;26.176;2023-08-12T10:23:50;101158.63;;;28.75;35.37
33153;BME280;19509;43.862;26.176;2023-08-12T10:26:17;101165.28;;;29.06;36.31
33153;BME280;19509;43.862;26.176;2023-08-12T10:28:43;101158.25;;;28.68;35.65
33153;BME280;19509;43.862;26.176;2023-08-12T10:31:11;101157.81;;;28.75;34.73
33153;BME280;19509;43.862;26.176;2023-08-12T10:33:40;101160.53;;;28.66;36.27
33153;BME280;19509;43.862;26.176;2023-08-12T10:36:07;101151.38;;;28.35;35.60
33153;BME280;19509;43.862;26.176;2023-08-12T10:38:33;101146.28;;;28.50;34.83
33153;BME280;19509;43.862;26.176;2023-08-12T10:41:19;101147.72;;;28.25;35.92
33153;BME280;19509;43.862;26.176;2023-08-12T10:43:52;101146.94;;;28.47;35.55
33153;BME280;19509;43.862;26.176;2023-08-12T10:46:30;101144.97;;;28.48;35.79
33153;BME280;19509;43.862;26.176;2023-08-12T10:51:53;101135.53;;;28.89;35.39
33153;BME280;19509;43.862;26.176;2023-08-12T10:54:28;101141.06;;;28.89;35.85
33153;BME280;19509;43.862;26.176;2023-08-12T10:57:06;101142.78;;;29.07;35.58
33153;BME280;19509;43.862;26.176;2023-08-12T11:02:22;101132.88;;;29.23;35.24
33153;BME280;19509;43.862;26.176;2023-08-12T11:10:03;101122.44;;;29.20;34.96
33153;BME280;19509;43.862;26.176;2023-08-12T11:12:35;101124.00;;;28.95;34.24
33153;BME280;19509;43.862;26.176;2023-08-12T11:15:02;101120.72;;;28.93;33.81
33153;BME280;19509;43.862;26.176;2023-08-12T11:17:41;101121.78;;;29.23;33.58
33153;BME280;19509;43.862;26.176;2023-08-12T11:20:11;101119.75;;;29.64;33.97
33153;BME280;19509;43.862;26.176;2023-08-12T11:22:39;101114.66;;;29.40;34.47
33153;BME280;19509;43.862;26.176;2023-08-12T11:25:12;101116.41;;;29.27;35.21
33153;BME280;19509;43.862;26.176;2023-08-12T11:27:39;101116.16;;;29.81;33.07
33153;BME280;19509;43.862;26.176;2023-08-12T11:30:06;101119.84;;;29.41;33.29
33153;BME280;19509;43.862;26.176;2023-08-12T11:32:32;101120.09;;;29.62;33.68
33153;BME280;19509;43.862;26.176;2023-08-12T11:34:58;101107.97;;;29.84;32.77
33153;BME280;19509;43.862;26.176;2023-08-12T11:37:23;101101.13;;;29.82;32.83
33153;BME280;19509;43.862;26.176;2023-08-12T11:39:51;101106.84;;;29.68;33.22
33153;BME280;19509;43.862;26.176;2023-08-12T11:42:17;101098.88;;;29.66;32.63
33153;BME280;19509;43.862;26.176;2023-08-12T11:44:43;101096.56;;;29.77;33.38
33153;BME280;19509;43.862;26.176;2023-08-12T11:47:09;101097.34;;;30.04;32.58
33153;BME280;19509;43.862;26.176;2023-08-12T11:49:34;101093.56;;;30.17;32.16
33153;BME280;19509;43.862;26.176;2023-08-12T11:52:00;101088.09;;;29.65;32.28
33153;BME280;19509;43.862;26.176;2023-08-12T11:54:26;101093.59;;;29.82;33.08
33153;BME280;19509;43.862;26.176;2023-08-12T11:56:52;101092.81;;;29.64;32.61
33153;BME280;19509;43.862;26.176;2023-08-12T11:59:17;101097.16;;;30.17;32.65
33153;BME280;19509;43.862;26.176;2023-08-12T12:01:46;101088.56;;;29.93;32.86
33153;BME280;19509;43.862;26.176;2023-08-12T12:04:14;101081.00;;;30.02;31.62
33153;BME280;19509;43.862;26.176;2023-08-12T12:06:40;101087.69;;;30.27;32.22
33153;BME280;19509;43.862;26.176;2023-08-12T12:09:08;101070.88;;;30.15;31.56
33153;BME280;19509;43.862;26.176;2023-08-12T12:11:37;101087.47;;;30.41;32.00
33153;BME280;19509;43.862;26.176;2023-08-12T12:14:03;101079.25;;;29.89;31.43
33153;BME280;19509;43.862;26.176;2023-08-12T12:16:47;101086.72;;;29.28;33.00
33153;BME280;19509;43.862;26.176;2023-08-12T12:19:17;101078.59;;;29.57;31.50
33153;BME280;19509;43.862;26.176;2023-08-12T12:21:45;101081.34;;;29.92;31.24
33153;BME280;19509;43.862;26.176;2023-08-12T12:24:11;101075.59;;;30.14;31.91
33153;BME280;19509;43.862;26.176;2023-08-12T12:26:37;101068.69;;;30.38;31.24
33153;BME280;19509;43.862;26.176;2023-08-12T12:29:06;101060.63;;;30.07;31.04
33153;BME280;19509;43.862;26.176;2023-08-12T12:31:35;101071.53;;;30.59;30.34
33153;BME280;19509;43.862;26.176;2023-08-12T12:34:02;101070.16;;;30.44;31.26
33153;BME280;19509;43.862;26.176;2023-08-12T12:36:34;101072.13;;;30.82;31.02
33153;BME280;19509;43.862;26.176;2023-08-12T12:39:00;101066.06;;;30.42;30.98
33153;BME280;19509;43.862;26.176;2023-08-12T12:41:25;101060.81;;;30.49;31.19
33153;BME280;19509;43.862;26.176;2023-08-12T12:43:51;101063.91;;;30.85;29.79
33153;BME280;19509;43.862;26.176;2023-08-12T12:46:16;101053.56;;;30.56;29.34
33153;BME280;19509;43.862;26.176;2023-08-12T12:48:43;101061.56;;;30.20;29.60
33153;BME280;19509;43.862;26.176;2023-08-12T12:51:08;101050.94;;;30.60;29.58
33153;BME280;19509;43.862;26.176;2023-08-12T12:53:34;101051.88;;;29.61;30.53